Latest Coastal Weather Observations for Gold Coast Seaway

IDQ60701

Issued at 10:15 pm EST Friday 24 October 2014 (issued every 10 minutes, with the page automatically refreshed every 10 minutes)

About coastal observations | Map of coastal stations | Coastal observations for QLD | Marine services | Other Formats
Station Details ID: 040764 Name: GOLD COAST SEAWAY Lat: -27.94 Lon: 153.43 Height: 2.98 m
Data from the previous 72 hours. | See also: Recent months at Gold Coast Seaway
Date/Time
EST
Temp

°C
Wind Pressure Rain
since 9am
mm
Weather Cloud Vis
km
Sea
Height
m
Swell
Dir
 
Speed
knots
Gust
knots
hPa Trend Height
m
Period
s
Dir
24/10:00pm 20.2 N 8 10 1022.1 - 0.0 - - - - - - -
24/09:30pm 20.3 NNW 8 11 1022.3 - 0.0 - - - - - - -
24/09:00pm 20.5 N 9 12 1022.3 - 0.0 - - - - - - -
24/08:30pm 20.6 N 8 11 1022.1 - 0.0 - - - - - - -
24/08:00pm 20.7 N 7 10 1021.9 - 0.0 - - - - - - -
24/07:30pm 21.3 NNE 14 18 1021.5 - 0.0 - - - - - - -
24/07:00pm 21.4 NNE 14 16 1021.4 - 0.0 - - - - - - -
24/06:30pm 21.5 NNE 14 16 1021.1 - 0.0 - - - - - - -
24/06:00pm 21.5 NNE 14 18 1020.8 - 0.0 - - - - - - -
24/05:30pm 21.9 NNE 14 17 1020.3 - 0.0 - - - - - - -
24/05:00pm 22.5 NNE 15 18 1020.0 - 0.0 - - - - - - -
24/04:30pm 22.9 NNE 15 19 1019.8 - 0.0 - - - - - - -
24/04:00pm 23.3 NE 16 18 1019.6 - 0.0 - - - - - - -
24/03:30pm 23.7 NE 15 18 1019.7 - 0.0 - - - - - - -
24/03:00pm 24.1 NNE 16 18 1019.8 - 0.0 - - - - - - -
24/02:30pm 24.8 NE 16 18 1020.0 - 0.0 - - - - - - -
24/02:00pm 24.8 NE 16 18 1020.1 - 0.0 - - - - - - -
24/01:30pm 24.7 NE 16 19 1020.4 - 0.0 - - - - - - -
24/01:00pm 24.9 NE 16 19 1020.6 - 0.0 - - - - - - -
24/12:30pm 24.9 NE 17 19 1020.7 - 0.0 - - - - - - -
24/12:00pm 25.2 NE 16 18 1021.0 - 0.0 - - - - - - -
24/11:30am 25.0 NE 16 17 1021.3 - 0.0 - - - - - - -
24/11:00am 24.8 NE 14 16 1021.7 - 0.0 - - - - - - -
24/10:30am 24.9 NE 13 15 1022.0 - 0.0 - - - - - - -
24/10:00am 25.1 NE 11 13 1022.3 - 0.0 - - - - - - -
24/09:30am 24.8 NE 10 13 1022.5 - 0.0 - - - - - - -
24/09:00am 24.9 NNE 8 10 1022.6 - 0.0 - - - - - - -
24/08:30am 24.3 NNE 7 9 1022.5 - 0.0 - - - - - - -
24/08:00am 22.6 NNW 6 8 1022.6 - 0.0 - - - - - - -
24/07:30am 21.4 NW 5 6 1022.7 - 0.0 - - - - - - -
24/07:00am 20.3 WNW 5 6 1022.4 - 0.0 - - - - - - -
24/06:30am 19.1 WNW 6 6 1022.3 - 0.0 - - - - - - -
24/06:00am 18.7 NW 6 7 1022.1 - 0.0 - - - - - - -
24/05:30am 18.0 WNW 5 6 1021.8 - 0.0 - - - - - - -
24/05:00am 17.9 W 7 8 1021.4 - 0.0 - - - - - - -
24/04:30am 17.7 WNW 6 7 1021.1 - 0.0 - - - - - - -
24/04:00am 17.8 WNW 5 6 1020.9 - 0.0 - - - - - - -
24/03:30am 17.6 WNW 5 6 1020.9 - 0.0 - - - - - - -
24/03:00am 17.9 W 7 8 1020.8 - 0.0 - - - - - - -
24/02:30am 18.1 WNW 7 7 1020.6 - 0.0 - - - - - - -
24/02:00am 18.9 NW 6 8 1020.6 - 0.0 - - - - - - -
24/01:30am 19.0 N 7 9 1020.7 - 0.0 - - - - - - -
24/01:00am 19.1 N 7 8 1020.9 - 0.0 - - - - - - -
24/12:30am 19.1 N 7 9 1021.2 - 0.0 - - - - - - -
24/12:00am 19.0 N 6 9 1021.5 - 0.0 - - - - - - -
 
Date/Time
EST
Temp

°C
Wind Pressure Rain
since 9am
mm
Weather Cloud Vis
km
Sea
Height
m
Swell
Dir
 
Speed
knots
Gust
knots
hPa Trend Height
m
Period
s
Dir
23/11:30pm 19.2 N 6 8 1021.7 - 0.0 - - - - - - -
23/11:00pm 19.4 NNW 6 8 1021.6 - 0.0 - - - - - - -
23/10:30pm 19.8 NNW 6 7 1021.7 - 0.0 - - - - - - -
23/10:00pm 20.2 NNW 7 9 1021.7 - 0.0 - - - - - - -
23/09:30pm 20.2 N 6 8 1021.5 - 0.0 - - - - - - -
23/09:00pm 20.2 NNW 6 8 1021.3 - 0.0 - - - - - - -
23/08:30pm 20.6 NNW 6 7 1021.3 - 0.0 - - - - - - -
23/08:00pm 20.9 N 9 11 1021.2 - 0.0 - - - - - - -
23/07:30pm 21.0 NNE 11 13 1020.7 - 0.0 - - - - - - -
23/07:00pm 21.0 NNE 12 14 1020.2 - 0.0 - - - - - - -
23/06:30pm 21.0 NNE 12 14 1019.9 - 0.0 - - - - - - -
23/06:00pm 21.1 NNE 13 15 1019.5 - 0.0 - - - - - - -
23/05:30pm 21.3 NNE 14 16 1019.0 - 0.0 - - - - - - -
23/05:00pm 21.6 NNE 14 16 1018.5 - 0.0 - - - - - - -
23/04:30pm 21.9 NNE 14 16 1018.3 - 0.0 - - - - - - -
23/04:00pm 22.7 NNE 15 18 1017.9 - 0.0 - - - - - - -
23/03:30pm 23.0 NNE 16 18 1017.6 - 0.0 - - - - - - -
23/03:00pm 23.6 NNE 16 19 1017.6 - 0.0 - - - - - - -
23/02:30pm 24.1 NNE 17 19 1017.8 - 0.0 - - - - - - -
23/02:00pm 23.9 NNE 17 19 1018.0 - 0.0 - - - - - - -
23/01:30pm 24.3 NNE 16 18 1018.6 - 0.0 - - - - - - -
23/01:00pm 24.2 NE 16 18 1018.9 - 0.0 - - - - - - -
23/12:30pm 24.1 NE 15 17 1019.4 - 0.0 - - - - - - -
23/12:00pm 23.7 NE 15 17 1019.8 - 0.0 - - - - - - -
23/11:30am 23.7 NE 14 16 1020.3 - 0.0 - - - - - - -
23/11:00am 23.5 NE 12 14 1020.8 - 0.0 - - - - - - -
23/10:30am 23.7 NE 12 14 1021.2 - 0.0 - - - - - - -
23/10:00am 23.6 NE 9 11 1021.7 - 0.0 - - - - - - -
23/09:30am 23.7 NNE 9 11 1022.0 - 0.0 - - - - - - -
23/09:00am 23.1 NE 6 8 1022.3 - 0.0 - - - - - - -
23/08:30am 21.5 NNW 6 8 1022.5 - 0.0 - - - - - - -
23/08:00am 20.6 NW 5 6 1022.6 - 0.0 - - - - - - -
23/07:30am 20.1 W 4 6 1022.6 - 0.0 - - - - - - -
23/07:00am 19.4 W 4 6 1022.4 - 0.0 - - - - - - -
23/06:30am 18.0 W 5 6 1022.3 - 0.0 - - - - - - -
23/06:00am 16.6 W 5 6 1022.0 - 0.0 - - - - - - -
23/05:30am 15.8 WSW 5 5 1021.8 - 0.0 - - - - - - -
23/05:00am 15.4 WSW 5 7 1021.6 - 0.0 - - - - - - -
23/04:30am 15.8 WSW 6 7 1021.6 - 0.0 - - - - - - -
23/04:00am 16.1 WSW 5 6 1021.5 - 0.0 - - - - - - -
23/03:30am 16.2 SW 5 6 1021.4 - 0.0 - - - - - - -
23/03:00am 16.3 W 4 6 1021.5 - 0.0 - - - - - - -
23/02:30am 16.2 SW 6 8 1021.5 - 0.0 - - - - - - -
23/02:00am 16.5 SW 6 7 1021.6 - 0.0 - - - - - - -
23/01:30am 17.0 SW 5 7 1021.9 - 0.0 - - - - - - -
23/01:00am 17.5 SSW 2 6 1022.1 - 0.0 - - - - - - -
23/12:30am 19.0 E 7 10 1022.3 - 0.0 - - - - - - -
23/12:00am 19.1 E 7 10 1022.5 - 0.0 - - - - - - -
 
Date/Time
EST
Temp

°C
Wind Pressure Rain
since 9am
mm
Weather Cloud Vis
km
Sea
Height
m
Swell
Dir
 
Speed
knots
Gust
knots
hPa Trend Height
m
Period
s
Dir
22/11:30pm 19.2 E 8 10 1022.9 - 0.0 - - - - - - -
22/11:00pm 19.3 ESE 9 12 1023.2 - 0.0 - - - - - - -
22/10:30pm 19.3 E 9 12 1023.3 - 0.0 - - - - - - -
22/10:00pm 19.5 E 10 14 1023.2 - 0.0 - - - - - - -
22/09:30pm 19.5 ESE 11 14 1023.3 - 0.0 - - - - - - -
22/09:00pm 19.6 SE 11 14 1023.4 - 0.0 - - - - - - -
22/08:30pm 19.5 SE 12 16 1023.4 - 0.0 - - - - - - -
22/08:00pm 19.6 SE 14 17 1023.3 - 0.0 - - - - - - -
22/07:30pm 19.5 SE 15 18 1023.2 - 0.0 - - - - - - -
22/07:00pm 19.7 SE 15 17 1023.2 - 0.0 - - - - - - -
22/06:30pm 19.6 SE 16 19 1023.0 - 0.0 - - - - - - -
22/06:00pm 19.9 SE 17 19 1022.9 - 0.0 - - - - - - -
22/05:30pm 20.3 SE 15 16 1022.8 - 0.0 - - - - - - -
22/05:00pm 21.6 SE 15 18 1022.8 - 0.0 - - - - - - -
22/04:30pm 21.6 SE 15 18 1022.7 - 0.0 - - - - - - -
22/04:00pm 22.3 SE 15 18 1022.7 - 0.0 - - - - - - -
22/03:30pm 23.4 SE 14 18 1022.7 - 0.0 - - - - - - -
22/03:00pm 23.8 SE 15 18 1022.7 - 0.0 - - - - - - -
22/02:30pm 23.1 SE 15 19 1022.8 - 0.0 - - - - - - -
22/02:00pm 22.6 SE 16 20 1023.2 - 0.0 - - - - - - -
22/01:30pm 23.4 SE 17 20 1023.6 - 0.0 - - - - - - -
22/01:00pm 23.6 SE 16 20 1023.8 - 0.0 - - - - - - -
22/12:30pm 24.2 SSE 17 20 1024.1 - 0.0 - - - - - - -
22/12:00pm 24.0 SSE 17 20 1024.4 - 0.0 - - - - - - -
22/11:30am 24.1 SSE 17 22 1024.8 - 0.0 - - - - - - -
22/11:00am 24.0 SSE 18 21 1025.0 - 0.0 - - - - - - -
22/10:30am 22.1 SSE 15 19 1025.3 - 0.0 - - - - - - -
22/10:00am 22.5 SSE 15 18 1025.5 - 0.0 - - - - - - -
22/09:30am 23.0 SSE 11 16 1025.8 - 0.0 - - - - - - -
22/09:00am 21.4 SSE 10 14 1025.9 - 0.0 - - - - - - -
22/08:30am 20.8 S 15 18 1025.8 - 0.0 - - - - - - -
22/08:00am 20.6 S 15 18 1025.7 - 0.0 - - - - - - -
22/07:30am 18.6 SSE 19 23 1025.6 - 0.0 - - - - - - -
22/07:00am 19.6 S 12 15 1025.1 - 0.0 - - - - - - -
22/06:30am 17.7 S 8 12 1025.2 - 0.0 - - - - - - -
22/06:00am 17.1 S 14 18 1024.9 - 0.0 - - - - - - -
22/05:30am 16.3 S 10 15 1024.7 - 0.0 - - - - - - -
22/05:00am 16.6 S 10 15 1024.6 - 0.0 - - - - - - -
22/04:30am 16.9 S 16 22 1024.5 - 0.0 - - - - - - -
22/04:00am 16.3 S 10 16 1024.5 - 0.0 - - - - - - -
22/03:30am 16.7 S 13 17 1024.5 - 0.0 - - - - - - -
22/03:00am 16.6 S 11 15 1024.6 - 0.0 - - - - - - -
22/02:30am 16.7 S 10 15 1024.7 - 0.0 - - - - - - -
22/02:00am 16.7 S 11 15 1025.3 - 0.0 - - - - - - -
22/01:30am 16.9 S 10 14 1025.5 - 0.0 - - - - - - -
22/01:00am 16.9 S 11 16 1025.8 - 0.0 - - - - - - -
22/12:30am 17.1 S 11 16 1026.4 - 0.0 - - - - - - -
22/12:00am 17.4 S 13 15 1026.8 - 0.0 - - - - - - -
 
Date/Time
EST
Temp

°C
Wind Pressure Rain
since 9am
mm
Weather Cloud Vis
km
Sea
Height
m
Swell
Dir
 
Speed
knots
Gust
knots
hPa Trend Height
m
Period
s
Dir
21/11:30pm 17.6 S 13 19 1027.1 - 0.0 - - - - - - -
21/11:00pm 17.1 S 12 17 1027.4 - 0.0 - - - - - - -
21/10:30pm 16.8 S 15 19 1027.6 - 0.0 - - - - - - -

Other Formats:

Comma delimited format used in spreadsheet applications
http://www.bom.gov.au/fwo/IDQ60701/IDQ60701.94580.axf

JavaScript Object Notation format (JSON) in row-major order
http://www.bom.gov.au/fwo/IDQ60701/IDQ60701.94580.json